Krugerville, Texas
Current Conditions -  °F | °C
As of 2:53 AM on Monday 20 Oct 2014 (Local Time) from KDTO Reporting Station
Clear Clear  
Wind Chill: 59°   Ceiling: Unl
Heat Index: 59°   Visibility: 10mi
Dew Point: 54°   Wind: 5mph
Humidity: 83%   Direction: 150°SSE
Pressure: 30.04"   Gusts: NA
Location:  33.2863°N, 96.9901°W
Report Text: KDTO 200753Z AUTO 15004KT 10SM CLR 15/12 A3004 RMK AO2 SLP168 T01500122
Loading
Personal Weather Stations






























Interactive Weather Map
Tropical Storm Tracking
New forecast layout! Learn more

10-Day Weather Forecast

Advertisements
Track Severe Weather on mobile